createdAt,value
2019-01-21T00:01:01.675Z,50.87
2019-01-21T00:06:04.147Z,49.63
2019-01-21T00:11:06.622Z,50.77
2019-01-21T00:16:09.082Z,47.90
2019-01-21T00:21:11.553Z,49.30
2019-01-21T00:26:14.009Z,52.90
2019-01-21T00:31:16.465Z,53.17
2019-01-21T00:36:19.045Z,52.87
2019-01-21T00:41:21.413Z,49.67
2019-01-21T00:46:23.872Z,48.33
2019-01-21T00:51:26.337Z,44.30
2019-01-21T00:56:28.798Z,51.97
2019-01-21T01:01:31.264Z,49.23
2019-01-21T01:06:33.753Z,51.23
2019-01-21T01:11:36.226Z,54.87
2019-01-21T01:16:38.684Z,48.17
2019-01-21T01:21:41.152Z,55.27
2019-01-21T01:26:43.733Z,57.13
2019-01-21T01:31:46.205Z,52.27
2019-01-21T01:36:48.665Z,58.23
2019-01-21T01:41:51.139Z,61.07
2019-01-21T01:46:53.609Z,60.47
2019-01-21T01:51:56.075Z,60.17
2019-01-21T01:56:58.538Z,59.63
2019-01-21T02:02:00.992Z,59.73
2019-01-21T02:07:03.443Z,52.13
2019-01-21T02:12:05.904Z,58.77
2019-01-21T02:17:08.361Z,57.23
2019-01-21T02:22:10.818Z,52.53
2019-01-21T02:27:13.286Z,55.03
2019-01-21T02:32:27.970Z,54.60
2019-01-21T02:37:36.149Z,54.93
2019-01-21T02:42:59.798Z,52.63
2019-01-21T02:48:23.553Z,50.87
2019-01-21T02:53:38.097Z,49.10
2019-01-21T02:58:49.558Z,49.53
2019-01-21T03:03:54.962Z,53.23
2019-01-21T03:09:09.201Z,53.67
2019-01-21T03:14:11.664Z,49.87
2019-01-21T03:19:47.109Z,44.10
2019-01-21T03:25:00.765Z,52.27
2019-01-21T03:30:15.117Z,41.10
2019-01-21T03:35:54.478Z,43.20
2019-01-21T03:41:08.921Z,52.20
2019-01-21T03:46:35.489Z,45.67
2019-01-21T03:52:14.809Z,47.67
2019-01-21T03:57:17.267Z,50.87
2019-01-21T04:02:34.489Z,49.90
2019-01-21T04:07:49.046Z,50.90
2019-01-21T04:12:54.155Z,51.43
2019-01-21T04:17:56.621Z,49.70
2019-01-21T04:23:01.715Z,52.37
2019-01-21T04:28:07.269Z,54.97
2019-01-21T04:33:27.821Z,55.33
2019-01-21T04:38:45.295Z,54.57
2019-01-21T04:43:53.652Z,51.27
2019-01-21T04:49:13.844Z,49.87
2019-01-21T04:54:18.970Z,49.10
2019-01-21T04:59:21.432Z,47.93
2019-01-21T05:04:23.905Z,48.87
2019-01-21T05:09:41.184Z,50.33
2019-01-21T05:14:52.337Z,51.17
2019-01-21T05:20:03.513Z,49.53
2019-01-21T05:25:27.454Z,52.90
2019-01-21T05:30:48.258Z,57.43
2019-01-21T05:36:02.638Z,51.90
2019-01-21T05:41:13.799Z,52.80
2019-01-21T05:46:25.014Z,47.43
2019-01-21T05:51:30.161Z,53.60
2019-01-21T05:56:41.489Z,79.97
2019-01-21T06:01:59.164Z,51.80
2019-01-21T06:07:07.380Z,57.07
2019-01-21T06:12:28.034Z,58.10
2019-01-21T06:17:36.184Z,61.17
2019-01-21T06:22:47.768Z,60.03
2019-01-21T06:28:05.599Z,59.20
2019-01-21T06:33:26.727Z,60.10
2019-01-21T06:38:50.741Z,60.03
2019-01-21T06:44:17.435Z,52.07
2019-01-21T06:49:34.953Z,52.37
2019-01-21T06:54:40.335Z,52.70
2019-01-21T07:00:13.599Z,57.23
2019-01-21T07:05:37.349Z,57.63
2019-01-21T07:10:48.907Z,57.13
2019-01-21T07:15:54.296Z,56.60
2019-01-21T07:21:18.080Z,63.43
2019-01-21T07:26:26.308Z,59.47
2019-01-21T07:31:40.601Z,57.37
2019-01-21T07:36:58.076Z,53.90
2019-01-21T07:42:21.856Z,61.63
2019-01-21T07:47:33.196Z,62.30
2019-01-21T07:52:38.359Z,75.97
2019-01-21T07:57:49.799Z,68.30
2019-01-21T08:02:58.467Z,70.13
2019-01-21T08:08:03.609Z,66.83
2019-01-21T08:13:08.738Z,68.17
2019-01-21T08:18:20.407Z,61.90
2019-01-21T08:23:30.333Z,56.90
2019-01-21T08:28:39.880Z,62.03
2019-01-21T08:34:00.500Z,56.57
2019-01-21T08:39:08.978Z,60.93
2019-01-21T08:44:11.580Z,59.07
2019-01-21T08:49:14.038Z,62.23
2019-01-21T08:54:16.535Z,55.77
2019-01-21T08:59:18.989Z,53.73
2019-01-21T09:04:27.556Z,57.97
2019-01-21T09:09:35.823Z,52.53
2019-01-21T09:14:38.283Z,53.43
2019-01-21T09:20:02.296Z,50.43
2019-01-21T09:25:07.556Z,61.20
2019-01-21T09:30:15.753Z,46.17
2019-01-21T09:35:43.084Z,49.53
2019-01-21T09:40:45.541Z,50.73
2019-01-21T09:45:50.945Z,51.33
2019-01-21T09:50:53.361Z,49.33
2019-01-21T09:55:55.849Z,52.20
2019-01-21T10:00:58.324Z,53.60
2019-01-21T10:06:00.786Z,50.43
2019-01-21T10:11:22.018Z,55.40
2019-01-21T10:16:30.331Z,51.63
2019-01-21T10:21:53.975Z,50.53
2019-01-21T10:27:14.917Z,50.17
2019-01-21T10:32:26.691Z,52.90
2019-01-21T10:37:47.145Z,48.83
2019-01-21T10:42:58.509Z,45.37
2019-01-21T10:48:31.743Z,48.73
2019-01-21T10:53:43.051Z,49.97
2019-01-21T10:58:57.654Z,46.23
2019-01-21T11:04:18.697Z,48.73
2019-01-21T11:09:42.504Z,45.17
2019-01-21T11:14:47.898Z,46.37
2019-01-21T11:20:08.496Z,39.47
2019-01-21T11:25:32.667Z,40.50
2019-01-21T11:30:47.486Z,40.17
2019-01-21T11:36:20.391Z,40.87
2019-01-21T11:41:28.627Z,42.40
2019-01-21T11:46:43.073Z,41.60
2019-01-21T11:51:54.451Z,42.23
2019-01-21T11:56:56.983Z,40.63
2019-01-21T12:02:26.631Z,41.70
2019-01-21T12:07:53.596Z,44.60
2019-01-21T12:13:14.570Z,39.37
2019-01-21T12:18:29.154Z,41.77
2019-01-21T12:23:40.625Z,43.10
2019-01-21T12:28:55.003Z,45.00
2019-01-21T12:34:00.675Z,47.33
2019-01-21T12:39:09.062Z,44.87
2019-01-21T12:44:38.421Z,44.20
2019-01-21T12:50:11.396Z,42.67
2019-01-21T12:55:16.784Z,43.87
2019-01-21T13:00:34.067Z,43.30
2019-01-21T13:05:36.522Z,43.90
2019-01-21T13:10:42.075Z,44.03
2019-01-21T13:15:59.328Z,43.30
2019-01-21T13:21:04.521Z,45.43
2019-01-21T13:26:24.869Z,41.23
2019-01-21T13:31:57.569Z,43.10
2019-01-21T13:37:08.776Z,45.20
2019-01-21T13:42:11.238Z,42.70
2019-01-21T13:47:40.820Z,44.50
2019-01-21T13:53:01.710Z,42.73
2019-01-21T13:58:22.690Z,47.43
2019-01-21T14:03:30.903Z,48.33
2019-01-21T14:08:42.524Z,41.10
2019-01-21T14:13:53.779Z,40.07
2019-01-21T14:18:56.325Z,44.93
2019-01-21T14:24:29.545Z,42.97
2019-01-21T14:29:46.922Z,44.13
2019-01-21T14:34:55.492Z,44.83
2019-01-21T14:40:00.799Z,42.67
2019-01-21T14:45:24.292Z,47.93
2019-01-21T14:50:32.526Z,44.37
2019-01-21T14:55:34.995Z,48.30
2019-01-21T15:00:52.326Z,47.67
2019-01-21T15:06:03.567Z,44.43
2019-01-21T15:11:27.574Z,46.83
2019-01-21T15:16:57.453Z,48.20
2019-01-21T15:22:08.631Z,45.03
2019-01-21T15:27:19.860Z,48.27
2019-01-21T15:32:28.337Z,47.47
2019-01-21T15:37:45.726Z,51.50
2019-01-21T15:43:12.381Z,45.87
2019-01-21T15:48:35.832Z,51.70
2019-01-21T15:53:56.784Z,54.50
2019-01-21T15:59:08.052Z,59.03
2019-01-21T16:04:10.528Z,74.47
2019-01-21T16:09:27.821Z,68.77
2019-01-21T16:14:30.286Z,73.33
2019-01-21T16:19:32.746Z,76.83
2019-01-21T16:24:44.393Z,64.27
2019-01-21T16:29:49.768Z,55.27
2019-01-21T16:35:10.214Z,56.23
2019-01-21T16:40:24.622Z,66.90
2019-01-21T16:45:27.117Z,56.27
2019-01-21T16:50:29.582Z,55.47
2019-01-21T16:55:32.050Z,60.20
2019-01-21T17:00:34.516Z,55.67
2019-01-21T17:05:36.968Z,52.47
2019-01-21T17:10:39.556Z,50.60
2019-01-21T17:15:41.900Z,56.03
2019-01-21T17:20:44.379Z,51.67
2019-01-21T17:25:46.834Z,53.70
2019-01-21T17:30:49.304Z,50.33
2019-01-21T17:35:51.764Z,57.07
2019-01-21T17:40:54.292Z,57.67
2019-01-21T17:45:56.733Z,57.43
2019-01-21T17:50:59.220Z,50.20
2019-01-21T17:56:01.707Z,58.97
2019-01-21T18:01:04.160Z,59.10
2019-01-21T18:06:06.664Z,62.40
2019-01-21T18:11:09.156Z,66.60
2019-01-21T18:16:11.643Z,64.00
2019-01-21T18:21:14.145Z,63.00
2019-01-21T18:26:16.626Z,57.33
2019-01-21T18:31:19.116Z,58.80
2019-01-21T18:36:21.590Z,62.30
2019-01-21T18:41:24.122Z,59.00
2019-01-21T18:46:26.675Z,70.20
2019-01-21T18:51:29.099Z,68.57
2019-01-21T18:56:31.589Z,65.50
2019-01-21T19:01:34.064Z,58.33
2019-01-21T19:06:36.518Z,56.63
2019-01-21T19:11:38.997Z,60.40
2019-01-21T19:16:41.520Z,61.23
2019-01-21T19:21:43.956Z,60.53
2019-01-21T19:26:46.441Z,65.37
2019-01-21T19:31:48.915Z,63.53
2019-01-21T19:36:51.391Z,61.37
2019-01-21T19:41:53.881Z,57.73
2019-01-21T19:46:56.357Z,62.10
2019-01-21T19:52:00.397Z,58.73
2019-01-21T19:57:01.364Z,60.50
2019-01-21T20:02:03.840Z,58.70
2019-01-21T20:07:06.325Z,63.30
2019-01-21T20:12:08.811Z,60.70
2019-01-21T20:17:11.281Z,67.50
2019-01-21T20:22:13.758Z,68.63
2019-01-21T20:27:16.268Z,71.03
2019-01-21T20:32:18.738Z,70.50
2019-01-21T20:37:21.205Z,65.87
2019-01-21T20:42:23.697Z,71.27
2019-01-21T20:47:26.140Z,79.13
2019-01-21T20:52:28.613Z,76.37
2019-01-21T20:57:31.089Z,73.23
2019-01-21T21:02:33.578Z,70.30
2019-01-21T21:07:36.175Z,87.47
2019-01-21T21:12:39.726Z,80.83
2019-01-21T21:17:42.210Z,82.73
2019-01-21T21:22:44.677Z,87.60
2019-01-21T21:27:47.283Z,93.17
2019-01-21T21:32:49.751Z,111.83
2019-01-21T21:37:52.215Z,106.07
2019-01-21T21:42:54.707Z,102.53
2019-01-21T21:48:00.920Z,94.60
2019-01-21T21:52:59.634Z,104.50
2019-01-21T21:58:02.103Z,91.60
2019-01-21T22:03:04.569Z,97.23
2019-01-21T22:08:07.055Z,88.70
2019-01-21T22:13:09.539Z,92.70
2019-01-21T22:18:12.024Z,92.37
2019-01-21T22:23:14.485Z,85.27
2019-01-21T22:28:16.965Z,93.50
2019-01-21T22:33:19.491Z,83.60
2019-01-21T22:38:21.963Z,86.20
2019-01-21T22:43:24.477Z,85.07
2019-01-21T22:48:26.907Z,85.07
2019-01-21T22:53:29.372Z,93.30
2019-01-21T22:58:31.848Z,89.10
2019-01-21T23:03:34.317Z,92.67
2019-01-21T23:08:36.775Z,86.40
2019-01-21T23:13:39.237Z,96.40
2019-01-21T23:18:41.701Z,85.13
2019-01-21T23:23:44.164Z,83.90
2019-01-21T23:28:46.624Z,92.90
2019-01-21T23:33:49.093Z,91.80
2019-01-21T23:38:51.555Z,89.43
2019-01-21T23:43:54.009Z,92.33
2019-01-21T23:48:56.476Z,86.57
2019-01-21T23:53:59.013Z,84.90
2019-01-21T23:59:01.495Z,86.70
